Lucky Five Ranch (79) Station Data

Red Flag Warning: No
Fire Weather Zone: 258
SDGE Region: Mountain Empire
Lat/Lon: 32.933/-116.528

Observations

Time Wind Speed/Gust Temp(F) RH Fuel Moist Fuel Temp(F) Dewpt(F) Tmax(F) Tmin(F) Accum Precip 10-min Precip SL Press(mb)
2/27 11:40pm 259 21 G 31 38° 100% - - 38° 43.1° 37.1° - - -
2/27 11:20pm 250 22 G 37 40° 100% - - 40° 43.1° 38.1° - - -
2/27 11:10pm 258 23 G 40 40° 100% - - 40° 43.1° 38.1° - - -
2/27 11:00pm 262 25 G 39 40° 100% - - 40° 43.1° 38.1° - - -
2/27 10:50pm 257 23 G 39 40° 100% - - 40° 43.1° 38.1° - - -
2/27 10:40pm 259 22 G 36 41° 100% - - 41° 43.1° 38.1° - - -
2/27 10:30pm 255 15 G 26 41° 100% - - 41° 43.1° 38.1° - - -
2/27 10:20pm 237 10 G 19 41° 100% - - 41° 43.1° 38.1° - - -
2/27 10:10pm 207 10 G 21 41° 100% - - 41° 43.1° 38.1° - - -
2/27 10:00pm 218 9 G 22 41° 100% - - 41° 43.1° 38.1° - - -
2/27 9:50pm 192 13 G 23 41° 100% - - 41° 43.1° 38.1° - - -
2/27 9:40pm 230 8 G 16 41° 100% - - 41° 43.1° 38.1° - - -
2/27 9:30pm 259 12 G 26 41° 100% - - 41° 43.1° 38.1° - - -
2/27 9:20pm 234 10 G 17 41° 100% - - 41° 43.1° 38.1° - - -
2/27 9:10pm 187 10 G 24 41° 100% - - 41° 43.1° 38.1° - - -
2/27 9:00pm 187 12 G 32 41° 100% - - 41° 43.1° 38.1° - - -
2/27 8:50pm 192 14 G 25 41° 100% - - 41° 43.1° 38.1° - - -
2/27 8:40pm 202 11 G 23 41° 100% - - 41° 43.1° 38.1° - - -
2/27 8:30pm 217 14 G 26 41° 100% - - 41° 43.1° 38.1° - - -
2/27 8:20pm 215 16 G 28 41° 100% - - 41° 43.1° 38.1° - - -
2/27 8:10pm 193 11 G 21 40° 100% - - 40° 43.1° 38.1° - - -
2/27 8:00pm 203 13 G 22 40° 100% - - 40° 43.1° 38.1° - - -
2/27 7:50pm 190 10 G 19 40° 100% - - 40° 43.1° 38.1° - - -
2/27 7:40pm 191 11 G 19 40° 100% - - 40° 43.1° 38.1° - - -
2/27 7:30pm 198 10 G 18 40° 100% - - 40° 43.1° 38.1° - - -
2/27 7:20pm 208 13 G 21 40° 100% - - 40° 43.1° 38.1° - - -
2/27 7:10pm 200 10 G 20 40° 100% - - 40° 43.1° 38.1° - - -
2/27 7:00pm 222 13 G 28 40° 100% - - 40° 43.1° 38.1° - - -
2/27 6:50pm 195 12 G 19 40° 100% - - 40° 43.1° 38.1° - - -
2/27 6:40pm 208 13 G 22 40° 100% - - 40° 43.1° 38.1° - - -
2/27 6:30pm 182 11 G 19 40° 100% - - 40° 43.1° 38.1° - - -
2/27 6:20pm 195 12 G 19 40° 100% - - 40° 43.1° 38.1° - - -
2/27 6:10pm 191 14 G 23 40° 100% - - 40° 43.1° 38.1° - - -
2/27 6:00pm 191 13 G 22 40° 100% - - 40° 43.1° 38.1° - - -
2/27 5:50pm 208 10 G 20 40° 100% - - 40° 43.1° 38.1° - - -
2/27 5:40pm 226 10 G 18 40° 100% - - 40° 43.1° 38.1° - - -
2/27 5:30pm 242 11 G 27 41° 100% - - 41° 43.1° 38.1° - - -
2/27 5:20pm 205 9 G 18 41° 100% - - 41° 43.1° 38.1° - - -
2/27 5:10pm 200 10 G 20 40° 100% - - 40° 43.1° 38.1° - - -
2/27 5:00pm 194 11 G 24 40° 100% - - 40° 43.1° 38.1° - - -
2/27 4:50pm 186 10 G 24 40° 100% - - 40° 43.1° 38.1° - - -
2/27 4:40pm 184 13 G 22 40° 100% - - 40° 43.1° 38.1° - - -
2/27 4:30pm 205 10 G 18 40° 100% - - 40° 43.1° 38.1° - - -
2/27 4:20pm 235 11 G 26 40° 100% - - 40° 43.1° 38.1° - - -
2/27 4:10pm 224 12 G 20 40° 100% - - 41° 43.1° 38.1° - - -
2/27 4:00pm 240 14 G 29 40° 100% - - 40° 43.1° 38.1° - - -
2/27 3:50pm 252 17 G 32 40° 100% - - 40° 43.1° 38.1° - - -
2/27 3:40pm 240 13 G 36 40° 100% - - 40° 43.1° 38.1° - - -
2/27 3:30pm 249 9 G 18 40° 100% - - 40° 43.1° 38.1° - - -
2/27 3:20pm 253 12 G 26 40° 100% - - 40° 43.1° 38.1° - - -
2/27 3:10pm 222 12 G 32 40° 100% - - 40° 43.1° 38.1° - - -
2/27 3:00pm 252 23 G 43 40° 100% - - 40° 43.1° 38.1° - - -
2/27 2:50pm 254 18 G 40 40° 100% - - 40° 43.1° 38.1° - - -
2/27 2:40pm 253 14 G 28 41° 100% - - 41° 43.1° 38.1° - - -
2/27 2:30pm 227 10 G 24 41° 100% - - 41° 43.1° 38.1° - - -
2/27 2:20pm 259 15 G 29 41° 100% - - 41° 43.1° 38.1° - - -
2/27 2:10pm 261 20 G 38 41° 100% - - 41° 43.1° 38.1° - - -
2/27 2:00pm 244 10 G 26 42° 100% - - 42° 43.1° 38.1° - - -
2/27 1:50pm 204 10 G 33 42° 100% - - 42° 43.1° 38.1° - - -
2/27 1:40pm 186 14 G 29 42° 100% - - 42° 43.1° 38.1° - - -
2/27 1:30pm 176 14 G 27 42° 100% - - 42° 43.1° 38.1° - - -
2/27 1:20pm 193 12 G 25 42° 100% - - 42° 43.1° 38.1° - - -
2/27 1:10pm 206 10 G 20 42° 100% - - 42° 43.1° 38.1° - - -
2/27 1:00pm 199 10 G 27 42° 100% - - 42° 43.1° 38.1° - - -
2/27 12:50pm 185 14 G 30 42° 100% - - 42° 43.1° 38.1° - - -
2/27 12:40pm 190 14 G 27 42° 100% - - 42° 43.1° 38.1° - - -
2/27 12:30pm 196 11 G 25 42° 100% - - 42° 43.1° 38.1° - - -
2/27 12:20pm 262 12 G 23 42° 100% - - 42° 43.1° 38.1° - - -
2/27 12:10pm 256 18 G 29 42° 100% - - 42° 43.1° 38.1° - - -
2/27 12:00pm 232 11 G 26 42° 100% - - 42° 43.1° 38.1° - - -
2/27 11:50am 197 13 G 27 42° 100% - - 42° 43.1° 38.1° - - -
2/27 11:40am 187 15 G 29 42° 100% - - 42° 43.1° 38.1° - - -
2/27 11:30am 227 11 G 25 42° 100% - - 42° 43.1° 38.1° - - -
2/27 11:20am 266 20 G 36 42° 100% - - 42° 43.1° 38.1° - - -
2/27 11:10am 219 14 G 33 43° 100% - - 43° 43.1° 38.1° - - -
2/27 11:00am 188 12 G 26 43° 100% - - 43° 43.1° 38.1° - - -
2/27 10:50am 195 11 G 30 43° 100% - - 43° 43.1° 38.1° - - -
2/27 10:40am 212 10 G 25 42° 100% - - 43° 43.1° 38.1° - - -
2/27 10:30am 185 11 G 23 42° 100% - - 42° 43.1° 38.1° - - -
2/27 10:20am 226 11 G 26 42° 100% - - 42° 43.1° 38.1° - - -
2/27 10:10am 262 13 G 24 43° 100% - - 43° 43.1° 38.1° - - -
2/27 10:00am 235 9 G 22 43° 100% - - 43° 43.1° 38.1° - - -
2/27 9:50am 201 11 G 27 43° 100% - - 43° 43° 38.1° - - -
2/27 9:40am 193 11 G 19 43° 100% - - 43° 42.9° 38.1° - - -
2/27 9:30am 195 8 G 16 43° 100% - - 43° 42.9° 38.1° - - -
2/27 9:20am 188 9 G 17 43° 100% - - 43° 42.9° 38.1° - - -
2/27 9:10am 208 14 G 25 43° 100% - - 43° 42.9° 38.1° - - -
2/27 9:00am 188 12 G 22 43° 100% - - 43° 42.9° 38.1° - - -
2/27 8:50am 205 10 G 20 43° 100% - - 43° 42.9° 38.1° - - -
2/27 8:40am 180 11 G 21 42° 100% - - 43° 42.9° 38.1° - - -
2/27 8:30am 183 11 G 23 43° 100% - - 43° 42.9° 38.1° - - -
2/27 8:20am 185 12 G 22 43° 100% - - 43° 42.9° 38.1° - - -
2/27 8:10am 203 9 G 22 43° 100% - - 43° 42.9° 38.1° - - -
2/27 8:00am 188 12 G 23 43° 100% - - 43° 42.9° 38.1° - - -
2/27 7:50am 194 10 G 21 43° 100% - - 43° 42.9° 38.1° - - -
2/27 7:40am 193 9 G 19 43° 100% - - 43° 42.8° 38.1° - - -
2/27 7:30am 176 11 G 21 42° 100% - - 43° 42.8° 38.1° - - -
2/27 7:20am 215 8 G 17 42° 100% - - 42° 42.8° 38.1° - - -
2/27 7:10am 258 10 G 19 42° 100% - - 42° 42.8° 38.1° - - -
2/27 7:00am 236 7 G 17 42° 100% - - 42° 42.8° 38.1° - - -
2/27 6:50am 256 10 G 18 42° 100% - - 42° 42.8° 38.1° - - -
2/27 6:40am 202 9 G 25 42° 100% - - 42° 42.8° 38.1° - - -
2/27 6:30am 211 9 G 16 42° 100% - - 42° 42.8° 38.1° - - -
2/27 6:20am 201 11 G 24 42° 100% - - 42° 42.8° 38.1° - - -
2/27 6:10am 266 11 G 23 43° 100% - - 43° 42.8° 38.1° - - -
2/27 6:00am 213 10 G 19 43° 100% - - 43° 42.8° 38.1° - - -
2/27 5:50am 205 10 G 20 42° 100% - - 43° 42.7° 38.1° - - -
2/27 5:40am 201 11 G 21 42° 100% - - 42° 42.7° 38.1° - - -
2/27 5:30am 208 11 G 19 42° 100% - - 42° 42.7° 38.1° - - -
2/27 5:20am 196 12 G 22 42° 100% - - 42° 42.7° 38.1° - - -
2/27 5:10am 192 13 G 30 43° 100% - - 43° 42.7° 38.1° - - -
2/27 5:00am 190 13 G 24 42° 100% - - 43° 42.7° 38.1° - - -
2/27 4:50am 199 12 G 23 42° 100% - - 42° 42.6° 38.1° - - -
2/27 4:40am 188 11 G 22 42° 100% - - 42° 42.5° 38.1° - - -
2/27 4:30am 183 11 G 25 42° 100% - - 42° 42.4° 38.1° - - -
2/27 4:20am 197 11 G 21 42° 100% - - 42° 42.4° 38.1° - - -
2/27 4:10am 188 12 G 24 42° 100% - - 42° 42.4° 38.1° - - -
2/27 4:00am 191 12 G 31 42° 100% - - 42° 42.1° 38.1° - - -
2/27 3:50am 203 7 G 16 42° 100% - - 42° 41.9° 38.1° - - -
2/27 3:40am 190 8 G 18 42° 100% - - 42° 41.9° 38.1° - - -
2/27 3:30am 188 8 G 17 42° 100% - - 42° 41.8° 38.1° - - -
2/27 3:20am 193 8 G 18 41° 100% - - 41° 41.6° 38.1° - - -
2/27 3:10am 262 11 G 18 41° 100% - - 41° 41.5° 38.1° - - -
2/27 3:00am 255 10 G 21 41° 100% - - 41° 41.4° 38.1° - - -
2/27 2:50am 208 8 G 18 41° 100% - - 41° 40.8° 38.1° - - -
2/27 2:40am 245 11 G 25 41° 100% - - 41° 40.7° 38.1° - - -
2/27 2:30am 258 13 G 20 40° 100% - - 40° 40.6° 38.1° - - -
2/27 2:20am 265 16 G 27 40° 100% - - 40° 40.4° 38.1° - - -
2/27 2:10am 263 18 G 34 40° 100% - - 40° 40.3° 38.1° - - -
2/27 2:00am 259 17 G 29 40° 100% - - 40° 40.2° 38.1° - - -
2/27 1:50am 254 19 G 32 40° 100% - - 40° 40.1° 38.1° - - -
2/27 1:40am 248 20 G 37 40° 100% - - 40° 40° 38.1° - - -
2/27 1:30am 243 22 G 34 40° 100% - - 40° 40° 38.1° - - -
2/27 1:20am 242 21 G 38 40° 100% - - 40° 39.9° 38.1° - - -
2/27 1:10am 244 22 G 38 40° 100% - - 40° 39.8° 38.1° - - -
2/27 1:00am 250 22 G 44 39° 100% - - 39° 39.6° 38.1° - - -
2/27 12:50am 250 22 G 42 39° 100% - - 39° 39.3° 38.1° - - -
2/27 12:40am 249 23 G 41 39° 100% - - 39° 39.2° 38.1° - - -
2/27 12:30am 247 23 G 42 39° 100% - - 39° 38.9° 38.1° - - -
2/27 12:20am 244 23 G 41 38° 100% - - 38° 38.6° 38.1° - - -
2/27 12:10am 242 24 G 40 38° 100% - - 38° 38.5° 38.1° - - -
2/27 12:00am 238 24 G 36 38° 100% - - 38° 38.6° 32.1° - - -
2/26 11:50pm 244 23 G 42 38° 100% - - 38° 38.3° 32.1° - - -
2/26 11:40pm 248 22 G 38 37° 100% - - 37° 37.9° 32.1° - - -
2/26 11:30pm 250 22 G 36 37° 100% - - 37° 37.5° 32.1° - - -
2/26 11:20pm 247 26 G 40 37° 100% - - 37° 37.5° 32.1° - - -
2/26 11:10pm 237 26 G 38 37° 100% - - 37° 37.5° 32.1° - - -
2/26 11:00pm 241 28 G 46 36° 100% - - 36° 37.5° 32.1° - - -
2/26 10:50pm 244 27 G 45 36° 100% - - 36° 37.5° 32.1° - - -
2/26 10:40pm 250 23 G 40 35° 96% - - 34° 37.5° 32.1° - - -
2/26 10:30pm 250 21 G 40 35° 87% - - 31° 37.5° 32.1° - - -
2/26 10:20pm 245 17 G 40 34° 92% - - 32° 37.5° 32.1° - - -
2/26 10:10pm 248 20 G 31 34° 100% - - 34° 37.5° 32.1° - - -
2/26 10:00pm 252 23 G 41 34° 100% - - 34° 37.5° 32.1° - - -
2/26 9:50pm 251 24 G 40 34° 100% - - 34° 37.5° 32.1° - - -
2/26 9:40pm 249 22 G 39 33° 100% - - 33° 37.5° 32.1° - - -
2/26 9:30pm 242 19 G 33 33° 100% - - 33° 37.5° 32.1° - - -
2/26 9:20pm 242 23 G 46 33° 100% - - 33° 37.5° 32.1° - - -
2/26 9:10pm 247 26 G 42 33° 100% - - 33° 37.5° 32.1° - - -
2/26 9:00pm 245 26 G 41 33° 100% - - 33° 37.5° 32.1° - - -
2/26 8:50pm 243 27 G 43 34° 100% - - 34° 37.5° 32.1° - - -
2/26 8:40pm 246 28 G 47 34° 100% - - 34° 37.5° 32.1° - - -
2/26 8:30pm 245 25 G 43 34° 100% - - 34° 37.5° 32.1° - - -
2/26 8:20pm 248 24 G 43 34° 100% - - 34° 37.5° 32.1° - - -
2/26 8:10pm 245 22 G 44 34° 100% - - 34° 37.5° 32.1° - - -
2/26 8:00pm 251 22 G 38 34° 100% - - 34° 37.5° 32.1° - - -
2/26 7:50pm 250 20 G 34 34° 100% - - 34° 37.5° 32.1° - - -
2/26 7:40pm 245 16 G 32 34° 100% - - 34° 37.5° 32.1° - - -
2/26 7:30pm 257 16 G 30 35° 100% - - 35° 37.5° 32.1° - - -
2/26 7:20pm 232 7 G 17 35° 100% - - 35° 37.5° 32.1° - - -
2/26 7:10pm 171 6 G 18 35° 100% - - 35° 37.5° 32.1° - - -
2/26 7:00pm 183 9 G 22 35° 100% - - 35° 37.5° 32.1° - - -
2/26 6:50pm 161 9 G 22 35° 100% - - 35° 37.5° 32.1° - - -
2/26 6:40pm 202 4 G 11 35° 100% - - 35° 37.5° 32.1° - - -
2/26 6:30pm 179 6 G 18 35° 100% - - 35° 37.5° 32.1° - - -
2/26 6:20pm 234 5 G 17 35° 100% - - 35° 37.5° 32.1° - - -
2/26 6:10pm 218 5 G 14 35° 100% - - 35° 37.5° 32.1° - - -
2/26 6:00pm 192 9 G 21 36° 100% - - 36° 37.5° 32.1° - - -
2/26 5:50pm 266 9 G 27 36° 100% - - 36° 37.5° 32.1° - - -
2/26 5:40pm 238 8 G 28 36° 100% - - 36° 37.5° 32.1° - - -
2/26 5:30pm 259 10 G 31 36° 100% - - 36° 37.5° 32.1° - - -
2/26 5:20pm 243 8 G 25 36° 100% - - 36° 37.5° 32.1° - - -
2/26 5:10pm 264 9 G 22 36° 100% - - 36° 37.5° 32.1° - - -
2/26 5:00pm 269 13 G 32 36° 100% - - 36° 37.5° 32.1° - - -